sensor_id;sensor_type;location;lat;lon;timestamp;P1;durP1;ratioP1;P2;durP2;ratioP2
2996;SDS011;1508;48.744;9.110;2022-09-23T00:02:03;8.20;;;6.97;;
2996;SDS011;1508;48.744;9.110;2022-09-23T00:04:49;7.75;;;6.95;;
2996;SDS011;1508;48.744;9.110;2022-09-23T00:07:35;7.57;;;6.30;;
2996;SDS011;1508;48.744;9.110;2022-09-23T00:10:21;8.48;;;6.60;;
2996;SDS011;1508;48.744;9.110;2022-09-23T00:13:07;8.05;;;6.30;;
2996;SDS011;1508;48.744;9.110;2022-09-23T00:15:53;8.80;;;7.00;;
2996;SDS011;1508;48.744;9.110;2022-09-23T00:18:39;7.85;;;6.03;;
2996;SDS011;1508;48.744;9.110;2022-09-23T00:21:26;6.60;;;5.60;;
2996;SDS011;1508;48.744;9.110;2022-09-23T00:24:12;6.80;;;5.50;;
2996;SDS011;1508;48.744;9.110;2022-09-23T00:26:58;7.15;;;5.32;;
2996;SDS011;1508;48.744;9.110;2022-09-23T00:29:44;6.47;;;5.25;;
2996;SDS011;1508;48.744;9.110;2022-09-23T00:32:30;5.57;;;5.00;;
2996;SDS011;1508;48.744;9.110;2022-09-23T00:35:16;5.70;;;5.00;;
2996;SDS011;1508;48.744;9.110;2022-09-23T00:38:03;6.60;;;5.22;;
2996;SDS011;1508;48.744;9.110;2022-09-23T00:40:49;5.35;;;4.75;;
2996;SDS011;1508;48.744;9.110;2022-09-23T00:43:42;7.45;;;4.28;;
2996;SDS011;1508;48.744;9.110;2022-09-23T00:46:32;4.90;;;4.40;;
2996;SDS011;1508;48.744;9.110;2022-09-23T00:49:24;6.03;;;4.93;;
2996;SDS011;1508;48.744;9.110;2022-09-23T00:52:14;4.78;;;4.10;;
2996;SDS011;1508;48.744;9.110;2022-09-23T00:55:10;5.60;;;4.57;;
2996;SDS011;1508;48.744;9.110;2022-09-23T00:58:00;5.35;;;4.00;;
2996;SDS011;1508;48.744;9.110;2022-09-23T01:00:48;4.90;;;4.22;;
2996;SDS011;1508;48.744;9.110;2022-09-23T01:03:34;4.28;;;3.70;;
2996;SDS011;1508;48.744;9.110;2022-09-23T01:06:20;5.33;;;4.10;;
2996;SDS011;1508;48.744;9.110;2022-09-23T01:09:06;5.70;;;4.30;;
2996;SDS011;1508;48.744;9.110;2022-09-23T01:33:45;6.60;;;4.68;;
2996;SDS011;1508;48.744;9.110;2022-09-23T01:36:34;5.47;;;4.57;;
2996;SDS011;1508;48.744;9.110;2022-09-23T01:39:37;7.53;;;4.85;;
2996;SDS011;1508;48.744;9.110;2022-09-23T01:42:38;7.78;;;4.45;;
2996;SDS011;1508;48.744;9.110;2022-09-23T01:45:50;5.50;;;4.50;;
2996;SDS011;1508;48.744;9.110;2022-09-23T01:48:55;7.55;;;4.70;;
2996;SDS011;1508;48.744;9.110;2022-09-23T01:51:56;7.50;;;4.47;;
2996;SDS011;1508;48.744;9.110;2022-09-23T01:55:00;5.72;;;4.70;;
2996;SDS011;1508;48.744;9.110;2022-09-23T01:58:06;5.75;;;4.30;;
2996;SDS011;1508;48.744;9.110;2022-09-23T02:01:00;5.65;;;5.05;;
2996;SDS011;1508;48.744;9.110;2022-09-23T02:03:59;6.40;;;4.30;;
2996;SDS011;1508;48.744;9.110;2022-09-23T02:07:00;5.90;;;4.67;;
2996;SDS011;1508;48.744;9.110;2022-09-23T02:09:55;5.25;;;4.15;;
2996;SDS011;1508;48.744;9.110;2022-09-23T02:12:46;5.10;;;4.60;;
2996;SDS011;1508;48.744;9.110;2022-09-23T02:15:38;5.20;;;4.10;;
2996;SDS011;1508;48.744;9.110;2022-09-23T02:18:29;6.45;;;4.10;;
2996;SDS011;1508;48.744;9.110;2022-09-23T02:21:19;5.75;;;4.20;;
2996;SDS011;1508;48.744;9.110;2022-09-23T02:24:10;5.05;;;4.55;;
2996;SDS011;1508;48.744;9.110;2022-09-23T02:27:05;5.10;;;4.03;;
2996;SDS011;1508;48.744;9.110;2022-09-23T02:32:59;4.55;;;4.10;;
2996;SDS011;1508;48.744;9.110;2022-09-23T02:39:33;5.35;;;4.40;;
2996;SDS011;1508;48.744;9.110;2022-09-23T02:42:39;5.78;;;5.07;;
2996;SDS011;1508;48.744;9.110;2022-09-23T02:45:31;6.30;;;5.50;;
2996;SDS011;1508;48.744;9.110;2022-09-23T02:51:06;6.20;;;5.05;;
2996;SDS011;1508;48.744;9.110;2022-09-23T02:53:54;5.60;;;5.00;;
2996;SDS011;1508;48.744;9.110;2022-09-23T02:56:41;8.85;;;5.70;;
2996;SDS011;1508;48.744;9.110;2022-09-23T02:59:27;6.15;;;5.22;;
2996;SDS011;1508;48.744;9.110;2022-09-23T03:11:16;5.35;;;4.85;;
2996;SDS011;1508;48.744;9.110;2022-09-23T03:19:49;7.63;;;5.57;;
2996;SDS011;1508;48.744;9.110;2022-09-23T03:22:50;8.00;;;5.95;;
2996;SDS011;1508;48.744;9.110;2022-09-23T03:25:40;7.40;;;6.20;;
2996;SDS011;1508;48.744;9.110;2022-09-23T03:28:29;6.15;;;5.28;;
2996;SDS011;1508;48.744;9.110;2022-09-23T03:31:15;6.57;;;5.88;;
2996;SDS011;1508;48.744;9.110;2022-09-23T03:34:02;9.70;;;6.60;;
2996;SDS011;1508;48.744;9.110;2022-09-23T03:36:57;7.00;;;6.30;;
2996;SDS011;1508;48.744;9.110;2022-09-23T03:40:07;7.93;;;6.80;;
2996;SDS011;1508;48.744;9.110;2022-09-23T03:42:59;9.80;;;6.50;;
2996;SDS011;1508;48.744;9.110;2022-09-23T03:45:46;7.30;;;6.47;;
2996;SDS011;1508;48.744;9.110;2022-09-23T03:48:32;7.88;;;6.50;;
2996;SDS011;1508;48.744;9.110;2022-09-23T03:51:19;7.60;;;6.63;;
2996;SDS011;1508;48.744;9.110;2022-09-23T03:54:06;7.85;;;5.85;;
2996;SDS011;1508;48.744;9.110;2022-09-23T03:56:52;7.38;;;5.90;;
2996;SDS011;1508;48.744;9.110;2022-09-23T03:59:38;6.93;;;6.00;;
2996;SDS011;1508;48.744;9.110;2022-09-23T04:02:24;6.35;;;5.65;;
2996;SDS011;1508;48.744;9.110;2022-09-23T04:05:10;7.40;;;5.80;;
2996;SDS011;1508;48.744;9.110;2022-09-23T04:07:57;6.55;;;5.85;;
2996;SDS011;1508;48.744;9.110;2022-09-23T04:10:43;6.72;;;6.03;;
2996;SDS011;1508;48.744;9.110;2022-09-23T04:13:29;7.22;;;5.30;;
2996;SDS011;1508;48.744;9.110;2022-09-23T04:16:15;8.23;;;6.28;;
2996;SDS011;1508;48.744;9.110;2022-09-23T04:19:00;7.53;;;6.60;;
2996;SDS011;1508;48.744;9.110;2022-09-23T04:21:46;6.83;;;6.13;;
2996;SDS011;1508;48.744;9.110;2022-09-23T04:24:33;11.65;;;7.25;;
2996;SDS011;1508;48.744;9.110;2022-09-23T04:27:19;9.55;;;5.97;;
2996;SDS011;1508;48.744;9.110;2022-09-23T04:30:05;8.65;;;6.10;;
2996;SDS011;1508;48.744;9.110;2022-09-23T04:32:51;7.13;;;6.43;;
2996;SDS011;1508;48.744;9.110;2022-09-23T04:35:38;9.02;;;6.40;;
2996;SDS011;1508;48.744;9.110;2022-09-23T04:38:24;7.57;;;6.68;;
2996;SDS011;1508;48.744;9.110;2022-09-23T04:41:10;8.07;;;6.50;;
2996;SDS011;1508;48.744;9.110;2022-09-23T04:43:57;9.30;;;6.95;;
2996;SDS011;1508;48.744;9.110;2022-09-23T04:46:43;9.25;;;7.07;;
2996;SDS011;1508;48.744;9.110;2022-09-23T04:49:29;8.07;;;6.65;;
2996;SDS011;1508;48.744;9.110;2022-09-23T04:52:14;9.82;;;6.80;;
2996;SDS011;1508;48.744;9.110;2022-09-23T04:55:00;8.93;;;6.95;;
2996;SDS011;1508;48.744;9.110;2022-09-23T04:57:46;10.80;;;7.20;;
2996;SDS011;1508;48.744;9.110;2022-09-23T05:00:32;7.28;;;6.28;;
2996;SDS011;1508;48.744;9.110;2022-09-23T05:03:18;11.57;;;7.35;;
2996;SDS011;1508;48.744;9.110;2022-09-23T05:06:04;10.68;;;6.80;;
2996;SDS011;1508;48.744;9.110;2022-09-23T05:08:51;7.70;;;6.45;;
2996;SDS011;1508;48.744;9.110;2022-09-23T05:11:38;8.20;;;6.40;;
2996;SDS011;1508;48.744;9.110;2022-09-23T05:14:24;9.05;;;6.88;;
2996;SDS011;1508;48.744;9.110;2022-09-23T05:17:10;7.32;;;6.53;;
2996;SDS011;1508;48.744;9.110;2022-09-23T05:19:59;8.00;;;6.50;;
2996;SDS011;1508;48.744;9.110;2022-09-23T05:22:45;8.38;;;6.95;;
2996;SDS011;1508;48.744;9.110;2022-09-23T05:25:30;7.82;;;6.10;;
2996;SDS011;1508;48.744;9.110;2022-09-23T05:28:16;8.40;;;6.80;;
2996;SDS011;1508;48.744;9.110;2022-09-23T05:31:07;7.43;;;5.65;;
2996;SDS011;1508;48.744;9.110;2022-09-23T05:34:01;6.70;;;5.70;;
2996;SDS011;1508;48.744;9.110;2022-09-23T05:36:49;8.15;;;5.95;;
2996;SDS011;1508;48.744;9.110;2022-09-23T05:39:35;7.22;;;6.10;;
2996;SDS011;1508;48.744;9.110;2022-09-23T05:42:21;8.02;;;5.28;;
2996;SDS011;1508;48.744;9.110;2022-09-23T05:45:07;8.40;;;6.25;;
2996;SDS011;1508;48.744;9.110;2022-09-23T05:47:53;7.95;;;5.40;;
2996;SDS011;1508;48.744;9.110;2022-09-23T05:50:44;8.40;;;5.30;;
2996;SDS011;1508;48.744;9.110;2022-09-23T05:53:34;7.90;;;5.60;;
2996;SDS011;1508;48.744;9.110;2022-09-23T05:56:21;6.80;;;5.05;;
2996;SDS011;1508;48.744;9.110;2022-09-23T05:59:07;8.85;;;5.70;;
2996;SDS011;1508;48.744;9.110;2022-09-23T06:01:53;8.68;;;5.20;;
2996;SDS011;1508;48.744;9.110;2022-09-23T06:04:39;9.20;;;5.87;;
2996;SDS011;1508;48.744;9.110;2022-09-23T06:07:25;6.40;;;4.63;;
2996;SDS011;1508;48.744;9.110;2022-09-23T06:10:10;6.60;;;4.97;;
2996;SDS011;1508;48.744;9.110;2022-09-23T06:12:56;8.07;;;5.18;;
2996;SDS011;1508;48.744;9.110;2022-09-23T06:15:42;9.70;;;4.80;;
2996;SDS011;1508;48.744;9.110;2022-09-23T06:18:28;8.90;;;4.60;;
2996;SDS011;1508;48.744;9.110;2022-09-23T06:21:14;8.73;;;5.40;;
2996;SDS011;1508;48.744;9.110;2022-09-23T06:24:01;8.07;;;5.25;;
2996;SDS011;1508;48.744;9.110;2022-09-23T06:26:47;7.13;;;5.47;;
2996;SDS011;1508;48.744;9.110;2022-09-23T06:29:33;7.40;;;5.50;;
2996;SDS011;1508;48.744;9.110;2022-09-23T06:32:19;9.27;;;4.70;;
2996;SDS011;1508;48.744;9.110;2022-09-23T06:35:04;8.90;;;4.97;;
2996;SDS011;1508;48.744;9.110;2022-09-23T06:37:51;7.90;;;4.32;;
2996;SDS011;1508;48.744;9.110;2022-09-23T06:40:38;7.80;;;4.60;;
2996;SDS011;1508;48.744;9.110;2022-09-23T06:43:24;7.63;;;5.30;;
2996;SDS011;1508;48.744;9.110;2022-09-23T06:46:12;8.00;;;5.50;;
2996;SDS011;1508;48.744;9.110;2022-09-23T06:48:59;7.22;;;5.00;;
2996;SDS011;1508;48.744;9.110;2022-09-23T06:51:45;6.00;;;5.20;;
2996;SDS011;1508;48.744;9.110;2022-09-23T06:54:31;7.82;;;5.00;;
2996;SDS011;1508;48.744;9.110;2022-09-23T06:57:17;8.63;;;4.90;;
2996;SDS011;1508;48.744;9.110;2022-09-23T07:00:03;8.17;;;5.10;;
2996;SDS011;1508;48.744;9.110;2022-09-23T07:02:49;8.23;;;4.78;;
2996;SDS011;1508;48.744;9.110;2022-09-23T07:05:35;6.80;;;4.68;;
2996;SDS011;1508;48.744;9.110;2022-09-23T07:08:21;7.60;;;4.93;;
2996;SDS011;1508;48.744;9.110;2022-09-23T07:11:08;5.88;;;4.30;;
2996;SDS011;1508;48.744;9.110;2022-09-23T07:13:53;7.28;;;4.28;;
2996;SDS011;1508;48.744;9.110;2022-09-23T07:16:39;3.70;;;3.10;;
2996;SDS011;1508;48.744;9.110;2022-09-23T07:19:25;4.70;;;3.72;;
2996;SDS011;1508;48.744;9.110;2022-09-23T07:22:11;3.40;;;2.90;;
2996;SDS011;1508;48.744;9.110;2022-09-23T07:24:57;4.80;;;3.00;;
2996;SDS011;1508;48.744;9.110;2022-09-23T07:27:43;4.13;;;2.80;;
2996;SDS011;1508;48.744;9.110;2022-09-23T07:30:29;4.15;;;2.80;;
2996;SDS011;1508;48.744;9.110;2022-09-23T07:33:15;4.65;;;2.83;;
2996;SDS011;1508;48.744;9.110;2022-09-23T07:36:08;5.50;;;3.00;;
2996;SDS011;1508;48.744;9.110;2022-09-23T07:38:56;2.70;;;2.10;;
2996;SDS011;1508;48.744;9.110;2022-09-23T07:41:41;4.25;;;2.60;;
2996;SDS011;1508;48.744;9.110;2022-09-23T07:44:27;4.25;;;3.00;;
2996;SDS011;1508;48.744;9.110;2022-09-23T07:47:13;4.15;;;2.90;;
2996;SDS011;1508;48.744;9.110;2022-09-23T07:49:59;4.32;;;3.22;;
2996;SDS011;1508;48.744;9.110;2022-09-23T07:52:45;4.50;;;3.10;;
2996;SDS011;1508;48.744;9.110;2022-09-23T07:55:31;4.15;;;3.10;;
2996;SDS011;1508;48.744;9.110;2022-09-23T07:58:16;3.55;;;2.78;;
2996;SDS011;1508;48.744;9.110;2022-09-23T08:01:08;4.63;;;2.92;;
2996;SDS011;1508;48.744;9.110;2022-09-23T08:03:56;4.72;;;2.80;;
2996;SDS011;1508;48.744;9.110;2022-09-23T08:06:50;4.68;;;2.70;;
2996;SDS011;1508;48.744;9.110;2022-09-23T08:09:39;3.05;;;2.70;;
2996;SDS011;1508;48.744;9.110;2022-09-23T08:12:26;3.80;;;2.90;;
2996;SDS011;1508;48.744;9.110;2022-09-23T08:15:13;4.25;;;3.00;;
2996;SDS011;1508;48.744;9.110;2022-09-23T08:17:59;4.28;;;3.10;;
2996;SDS011;1508;48.744;9.110;2022-09-23T08:20:45;4.60;;;2.90;;
2996;SDS011;1508;48.744;9.110;2022-09-23T08:23:30;3.30;;;2.70;;
2996;SDS011;1508;48.744;9.110;2022-09-23T08:26:16;3.70;;;2.65;;
2996;SDS011;1508;48.744;9.110;2022-09-23T08:29:03;3.10;;;2.42;;
2996;SDS011;1508;48.744;9.110;2022-09-23T08:31:49;4.10;;;2.53;;
2996;SDS011;1508;48.744;9.110;2022-09-23T08:34:35;2.80;;;2.50;;
2996;SDS011;1508;48.744;9.110;2022-09-23T08:37:21;3.10;;;2.53;;
2996;SDS011;1508;48.744;9.110;2022-09-23T08:40:07;4.78;;;2.50;;
2996;SDS011;1508;48.744;9.110;2022-09-23T08:42:53;4.55;;;2.88;;
2996;SDS011;1508;48.744;9.110;2022-09-23T08:45:39;3.70;;;2.50;;
2996;SDS011;1508;48.744;9.110;2022-09-23T08:48:28;4.55;;;2.38;;
2996;SDS011;1508;48.744;9.110;2022-09-23T08:51:24;4.40;;;2.40;;
2996;SDS011;1508;48.744;9.110;2022-09-23T08:54:15;3.53;;;2.45;;
2996;SDS011;1508;48.744;9.110;2022-09-23T08:57:02;4.07;;;2.70;;
2996;SDS011;1508;48.744;9.110;2022-09-23T08:59:49;3.70;;;2.20;;
2996;SDS011;1508;48.744;9.110;2022-09-23T09:02:35;5.03;;;2.67;;
2996;SDS011;1508;48.744;9.110;2022-09-23T09:05:24;3.00;;;2.20;;
2996;SDS011;1508;48.744;9.110;2022-09-23T09:08:12;4.50;;;2.42;;
2996;SDS011;1508;48.744;9.110;2022-09-23T09:11:07;4.72;;;2.30;;
2996;SDS011;1508;48.744;9.110;2022-09-23T09:14:01;3.75;;;2.50;;
2996;SDS011;1508;48.744;9.110;2022-09-23T09:23:11;2.72;;;2.15;;
2996;SDS011;1508;48.744;9.110;2022-09-23T09:26:08;3.00;;;2.30;;
2996;SDS011;1508;48.744;9.110;2022-09-23T09:29:09;4.35;;;2.60;;
2996;SDS011;1508;48.744;9.110;2022-09-23T09:32:01;2.85;;;2.30;;
2996;SDS011;1508;48.744;9.110;2022-09-23T09:35:00;3.30;;;2.53;;
2996;SDS011;1508;48.744;9.110;2022-09-23T09:37:53;4.18;;;2.53;;
2996;SDS011;1508;48.744;9.110;2022-09-23T09:40:40;5.60;;;2.60;;
2996;SDS011;1508;48.744;9.110;2022-09-23T09:43:30;3.83;;;2.50;;
2996;SDS011;1508;48.744;9.110;2022-09-23T09:46:25;5.90;;;2.40;;
2996;SDS011;1508;48.744;9.110;2022-09-23T09:49:31;5.55;;;2.65;;
2996;SDS011;1508;48.744;9.110;2022-09-23T09:52:27;3.70;;;2.20;;
2996;SDS011;1508;48.744;9.110;2022-09-23T09:55:26;2.90;;;2.10;;
2996;SDS011;1508;48.744;9.110;2022-09-23T09:58:13;4.32;;;2.30;;
2996;SDS011;1508;48.744;9.110;2022-09-23T10:00:59;3.42;;;2.80;;
2996;SDS011;1508;48.744;9.110;2022-09-23T10:03:45;3.92;;;2.90;;
2996;SDS011;1508;48.744;9.110;2022-09-23T10:06:32;4.63;;;2.70;;
2996;SDS011;1508;48.744;9.110;2022-09-23T10:09:20;5.90;;;2.55;;
2996;SDS011;1508;48.744;9.110;2022-09-23T10:12:15;6.70;;;3.00;;
2996;SDS011;1508;48.744;9.110;2022-09-23T10:15:23;3.00;;;2.40;;
2996;SDS011;1508;48.744;9.110;2022-09-23T10:18:19;2.85;;;2.45;;
2996;SDS011;1508;48.744;9.110;2022-09-23T10:21:32;6.15;;;3.60;;
2996;SDS011;1508;48.744;9.110;2022-09-23T10:24:21;4.95;;;3.00;;
2996;SDS011;1508;48.744;9.110;2022-09-23T10:27:09;4.03;;;2.77;;
2996;SDS011;1508;48.744;9.110;2022-09-23T10:29:56;3.60;;;2.60;;
2996;SDS011;1508;48.744;9.110;2022-09-23T10:32:44;4.97;;;3.08;;
2996;SDS011;1508;48.744;9.110;2022-09-23T10:35:30;5.00;;;3.10;;
2996;SDS011;1508;48.744;9.110;2022-09-23T10:38:16;3.92;;;2.33;;
2996;SDS011;1508;48.744;9.110;2022-09-23T10:41:01;4.15;;;2.28;;
2996;SDS011;1508;48.744;9.110;2022-09-23T10:44:11;4.82;;;2.60;;
2996;SDS011;1508;48.744;9.110;2022-09-23T10:50:29;3.55;;;2.50;;
2996;SDS011;1508;48.744;9.110;2022-09-23T10:57:11;2.50;;;2.00;;
2996;SDS011;1508;48.744;9.110;2022-09-23T11:00:31;6.93;;;2.80;;
2996;SDS011;1508;48.744;9.110;2022-09-23T11:03:45;4.13;;;2.20;;
2996;SDS011;1508;48.744;9.110;2022-09-23T11:25:57;4.43;;;2.88;;
2996;SDS011;1508;48.744;9.110;2022-09-23T11:37:51;3.88;;;2.58;;
2996;SDS011;1508;48.744;9.110;2022-09-23T11:40:49;4.95;;;2.55;;
2996;SDS011;1508;48.744;9.110;2022-09-23T11:43:39;3.63;;;2.67;;
2996;SDS011;1508;48.744;9.110;2022-09-23T11:49:21;3.08;;;2.53;;
2996;SDS011;1508;48.744;9.110;2022-09-23T11:52:14;4.50;;;2.53;;
2996;SDS011;1508;48.744;9.110;2022-09-23T11:55:05;4.45;;;2.80;;
2996;SDS011;1508;48.744;9.110;2022-09-23T11:58:05;5.30;;;3.35;;
2996;SDS011;1508;48.744;9.110;2022-09-23T12:00:59;8.38;;;3.50;;
2996;SDS011;1508;48.744;9.110;2022-09-23T12:04:08;6.20;;;3.20;;
2996;SDS011;1508;48.744;9.110;2022-09-23T12:12:50;4.97;;;3.60;;
2996;SDS011;1508;48.744;9.110;2022-09-23T12:25:14;3.92;;;3.10;;
2996;SDS011;1508;48.744;9.110;2022-09-23T12:28:09;5.38;;;3.05;;
2996;SDS011;1508;48.744;9.110;2022-09-23T12:30:59;5.20;;;3.65;;
2996;SDS011;1508;48.744;9.110;2022-09-23T12:33:47;5.40;;;3.28;;
2996;SDS011;1508;48.744;9.110;2022-09-23T12:36:38;4.13;;;3.17;;
2996;SDS011;1508;48.744;9.110;2022-09-23T12:39:29;5.53;;;3.20;;
2996;SDS011;1508;48.744;9.110;2022-09-23T12:42:17;6.65;;;3.08;;
2996;SDS011;1508;48.744;9.110;2022-09-23T12:53:55;5.03;;;3.55;;
2996;SDS011;1508;48.744;9.110;2022-09-23T13:02:42;5.10;;;3.35;;
2996;SDS011;1508;48.744;9.110;2022-09-23T13:05:47;5.97;;;3.63;;
2996;SDS011;1508;48.744;9.110;2022-09-23T13:08:37;6.47;;;3.65;;
2996;SDS011;1508;48.744;9.110;2022-09-23T13:11:25;5.25;;;3.80;;
2996;SDS011;1508;48.744;9.110;2022-09-23T13:14:17;6.45;;;3.50;;
2996;SDS011;1508;48.744;9.110;2022-09-23T13:17:19;6.37;;;4.03;;
2996;SDS011;1508;48.744;9.110;2022-09-23T13:26:10;5.35;;;3.35;;
2996;SDS011;1508;48.744;9.110;2022-09-23T13:28:58;7.15;;;4.00;;
2996;SDS011;1508;48.744;9.110;2022-09-23T13:31:44;7.27;;;3.77;;
2996;SDS011;1508;48.744;9.110;2022-09-23T13:34:32;5.20;;;4.10;;
2996;SDS011;1508;48.744;9.110;2022-09-23T13:37:21;6.00;;;3.95;;
2996;SDS011;1508;48.744;9.110;2022-09-23T13:43:04;7.22;;;4.20;;
2996;SDS011;1508;48.744;9.110;2022-09-23T13:45:54;9.60;;;4.68;;
2996;SDS011;1508;48.744;9.110;2022-09-23T13:48:39;7.25;;;4.50;;
2996;SDS011;1508;48.744;9.110;2022-09-23T13:51:30;6.10;;;4.30;;
2996;SDS011;1508;48.744;9.110;2022-09-23T13:54:29;5.05;;;3.90;;
2996;SDS011;1508;48.744;9.110;2022-09-23T13:57:34;7.15;;;4.30;;
2996;SDS011;1508;48.744;9.110;2022-09-23T14:00:20;9.18;;;4.80;;
2996;SDS011;1508;48.744;9.110;2022-09-23T14:03:23;5.63;;;4.60;;
2996;SDS011;1508;48.744;9.110;2022-09-23T14:06:13;7.28;;;5.13;;
2996;SDS011;1508;48.744;9.110;2022-09-23T14:09:00;5.63;;;4.68;;
2996;SDS011;1508;48.744;9.110;2022-09-23T14:11:46;8.70;;;4.97;;
2996;SDS011;1508;48.744;9.110;2022-09-23T14:14:35;6.43;;;5.70;;
2996;SDS011;1508;48.744;9.110;2022-09-23T14:17:22;6.40;;;4.38;;
2996;SDS011;1508;48.744;9.110;2022-09-23T14:20:12;7.95;;;4.32;;
2996;SDS011;1508;48.744;9.110;2022-09-23T14:23:08;6.50;;;4.32;;
2996;SDS011;1508;48.744;9.110;2022-09-23T14:25:56;5.25;;;3.92;;
2996;SDS011;1508;48.744;9.110;2022-09-23T14:28:43;6.95;;;3.90;;
2996;SDS011;1508;48.744;9.110;2022-09-23T14:31:30;7.05;;;4.43;;
2996;SDS011;1508;48.744;9.110;2022-09-23T14:43:25;6.90;;;4.60;;
2996;SDS011;1508;48.744;9.110;2022-09-23T14:46:15;6.65;;;4.18;;
2996;SDS011;1508;48.744;9.110;2022-09-23T14:51:56;7.10;;;4.57;;
2996;SDS011;1508;48.744;9.110;2022-09-23T14:54:44;5.55;;;4.75;;
2996;SDS011;1508;48.744;9.110;2022-09-23T14:57:30;9.20;;;5.15;;
2996;SDS011;1508;48.744;9.110;2022-09-23T15:00:17;7.07;;;5.40;;
2996;SDS011;1508;48.744;9.110;2022-09-23T15:03:11;6.75;;;5.20;;
2996;SDS011;1508;48.744;9.110;2022-09-23T15:06:02;7.55;;;5.15;;
2996;SDS011;1508;48.744;9.110;2022-09-23T15:08:50;9.73;;;5.03;;
2996;SDS011;1508;48.744;9.110;2022-09-23T15:11:38;6.80;;;5.70;;
2996;SDS011;1508;48.744;9.110;2022-09-23T15:14:28;7.93;;;5.10;;
2996;SDS011;1508;48.744;9.110;2022-09-23T15:17:24;7.70;;;5.40;;
2996;SDS011;1508;48.744;9.110;2022-09-23T15:23:29;7.00;;;5.40;;
2996;SDS011;1508;48.744;9.110;2022-09-23T15:29:32;6.63;;;4.43;;
2996;SDS011;1508;48.744;9.110;2022-09-23T15:32:19;5.65;;;4.82;;
2996;SDS011;1508;48.744;9.110;2022-09-23T15:35:05;7.25;;;3.92;;
2996;SDS011;1508;48.744;9.110;2022-09-23T15:37:54;8.80;;;4.60;;
2996;SDS011;1508;48.744;9.110;2022-09-23T15:40:41;5.40;;;4.20;;
2996;SDS011;1508;48.744;9.110;2022-09-23T15:43:27;7.20;;;5.25;;
2996;SDS011;1508;48.744;9.110;2022-09-23T15:46:16;9.13;;;4.60;;
2996;SDS011;1508;48.744;9.110;2022-09-23T15:49:03;5.10;;;4.60;;
2996;SDS011;1508;48.744;9.110;2022-09-23T15:51:55;7.65;;;5.00;;
2996;SDS011;1508;48.744;9.110;2022-09-23T15:54:43;5.22;;;4.68;;
2996;SDS011;1508;48.744;9.110;2022-09-23T15:57:29;7.97;;;4.30;;
2996;SDS011;1508;48.744;9.110;2022-09-23T16:00:15;7.55;;;4.60;;
2996;SDS011;1508;48.744;9.110;2022-09-23T16:03:01;8.15;;;5.43;;
2996;SDS011;1508;48.744;9.110;2022-09-23T16:05:48;5.93;;;4.38;;
2996;SDS011;1508;48.744;9.110;2022-09-23T16:08:34;5.30;;;4.20;;
2996;SDS011;1508;48.744;9.110;2022-09-23T16:11:21;8.30;;;4.28;;
2996;SDS011;1508;48.744;9.110;2022-09-23T16:14:10;6.78;;;4.00;;
2996;SDS011;1508;48.744;9.110;2022-09-23T16:16:58;4.20;;;3.80;;
2996;SDS011;1508;48.744;9.110;2022-09-23T16:19:44;5.57;;;3.78;;
2996;SDS011;1508;48.744;9.110;2022-09-23T16:22:30;6.40;;;3.85;;
2996;SDS011;1508;48.744;9.110;2022-09-23T16:25:16;6.88;;;4.22;;
2996;SDS011;1508;48.744;9.110;2022-09-23T16:28:02;5.30;;;4.30;;
2996;SDS011;1508;48.744;9.110;2022-09-23T16:30:49;6.68;;;4.18;;
2996;SDS011;1508;48.744;9.110;2022-09-23T16:33:35;7.72;;;4.22;;
2996;SDS011;1508;48.744;9.110;2022-09-23T16:36:22;5.50;;;4.20;;
2996;SDS011;1508;48.744;9.110;2022-09-23T16:39:10;6.78;;;4.10;;
2996;SDS011;1508;48.744;9.110;2022-09-23T16:41:57;8.30;;;4.70;;
2996;SDS011;1508;48.744;9.110;2022-09-23T16:44:43;6.10;;;3.63;;
2996;SDS011;1508;48.744;9.110;2022-09-23T16:47:29;7.80;;;5.05;;
2996;SDS011;1508;48.744;9.110;2022-09-23T16:50:16;7.80;;;4.70;;
2996;SDS011;1508;48.744;9.110;2022-09-23T16:53:04;7.90;;;4.47;;
2996;SDS011;1508;48.744;9.110;2022-09-23T16:55:50;8.50;;;5.20;;
2996;SDS011;1508;48.744;9.110;2022-09-23T16:58:36;8.40;;;4.60;;
2996;SDS011;1508;48.744;9.110;2022-09-23T17:01:24;5.35;;;4.80;;
2996;SDS011;1508;48.744;9.110;2022-09-23T17:04:12;8.38;;;4.90;;
2996;SDS011;1508;48.744;9.110;2022-09-23T17:06:59;6.88;;;5.05;;
2996;SDS011;1508;48.744;9.110;2022-09-23T17:09:45;8.00;;;5.10;;
2996;SDS011;1508;48.744;9.110;2022-09-23T17:12:31;7.43;;;4.38;;
2996;SDS011;1508;48.744;9.110;2022-09-23T17:15:17;7.30;;;4.90;;
2996;SDS011;1508;48.744;9.110;2022-09-23T17:18:03;6.55;;;4.75;;
2996;SDS011;1508;48.744;9.110;2022-09-23T17:20:57;6.82;;;4.70;;
2996;SDS011;1508;48.744;9.110;2022-09-23T17:23:45;6.70;;;4.78;;
2996;SDS011;1508;48.744;9.110;2022-09-23T17:26:31;7.03;;;5.05;;
2996;SDS011;1508;48.744;9.110;2022-09-23T17:29:17;7.78;;;4.90;;
2996;SDS011;1508;48.744;9.110;2022-09-23T17:32:03;8.10;;;5.40;;
2996;SDS011;1508;48.744;9.110;2022-09-23T17:34:48;8.45;;;5.03;;
2996;SDS011;1508;48.744;9.110;2022-09-23T17:37:37;5.65;;;4.90;;
2996;SDS011;1508;48.744;9.110;2022-09-23T17:40:23;6.65;;;4.78;;
2996;SDS011;1508;48.744;9.110;2022-09-23T17:43:09;8.20;;;5.00;;
2996;SDS011;1508;48.744;9.110;2022-09-23T17:45:55;6.72;;;5.10;;
2996;SDS011;1508;48.744;9.110;2022-09-23T17:48:45;6.47;;;4.97;;
2996;SDS011;1508;48.744;9.110;2022-09-23T17:51:31;7.00;;;4.90;;
2996;SDS011;1508;48.744;9.110;2022-09-23T17:54:17;7.13;;;4.80;;
2996;SDS011;1508;48.744;9.110;2022-09-23T17:57:02;6.47;;;5.00;;
2996;SDS011;1508;48.744;9.110;2022-09-23T17:59:48;7.20;;;5.38;;
2996;SDS011;1508;48.744;9.110;2022-09-23T18:02:34;7.07;;;4.75;;
2996;SDS011;1508;48.744;9.110;2022-09-23T18:05:20;6.13;;;4.63;;
2996;SDS011;1508;48.744;9.110;2022-09-23T18:08:06;6.00;;;4.28;;
2996;SDS011;1508;48.744;9.110;2022-09-23T18:10:52;5.80;;;4.40;;
2996;SDS011;1508;48.744;9.110;2022-09-23T18:13:38;6.20;;;4.88;;
2996;SDS011;1508;48.744;9.110;2022-09-23T18:16:25;7.68;;;4.80;;
2996;SDS011;1508;48.744;9.110;2022-09-23T18:19:14;7.93;;;5.50;;
2996;SDS011;1508;48.744;9.110;2022-09-23T18:22:01;8.63;;;5.00;;
2996;SDS011;1508;48.744;9.110;2022-09-23T18:24:47;7.75;;;4.70;;
2996;SDS011;1508;48.744;9.110;2022-09-23T18:27:33;7.90;;;4.90;;
2996;SDS011;1508;48.744;9.110;2022-09-23T18:30:18;7.35;;;5.57;;
2996;SDS011;1508;48.744;9.110;2022-09-23T18:33:04;7.28;;;5.32;;
2996;SDS011;1508;48.744;9.110;2022-09-23T18:35:50;9.10;;;5.27;;
2996;SDS011;1508;48.744;9.110;2022-09-23T18:38:36;6.70;;;5.20;;
2996;SDS011;1508;48.744;9.110;2022-09-23T18:41:22;8.77;;;5.78;;
2996;SDS011;1508;48.744;9.110;2022-09-23T18:44:08;8.45;;;5.10;;
2996;SDS011;1508;48.744;9.110;2022-09-23T18:46:54;6.90;;;5.40;;
2996;SDS011;1508;48.744;9.110;2022-09-23T18:49:39;8.00;;;6.00;;
2996;SDS011;1508;48.744;9.110;2022-09-23T18:52:25;10.30;;;6.30;;
2996;SDS011;1508;48.744;9.110;2022-09-23T18:55:11;7.00;;;5.43;;
2996;SDS011;1508;48.744;9.110;2022-09-23T18:57:57;8.07;;;5.68;;
2996;SDS011;1508;48.744;9.110;2022-09-23T19:00:43;9.80;;;5.30;;
2996;SDS011;1508;48.744;9.110;2022-09-23T19:03:28;8.57;;;5.35;;
2996;SDS011;1508;48.744;9.110;2022-09-23T19:06:15;6.20;;;5.20;;
2996;SDS011;1508;48.744;9.110;2022-09-23T19:09:02;8.15;;;5.75;;
2996;SDS011;1508;48.744;9.110;2022-09-23T19:11:49;10.93;;;6.00;;
2996;SDS011;1508;48.744;9.110;2022-09-23T19:14:36;7.25;;;5.60;;
2996;SDS011;1508;48.744;9.110;2022-09-23T19:17:21;9.60;;;5.75;;
2996;SDS011;1508;48.744;9.110;2022-09-23T19:20:07;10.95;;;5.95;;
2996;SDS011;1508;48.744;9.110;2022-09-23T19:22:53;7.20;;;5.53;;
2996;SDS011;1508;48.744;9.110;2022-09-23T19:25:39;8.07;;;5.80;;
2996;SDS011;1508;48.744;9.110;2022-09-23T19:28:26;8.10;;;5.35;;
2996;SDS011;1508;48.744;9.110;2022-09-23T19:31:16;8.65;;;5.40;;
2996;SDS011;1508;48.744;9.110;2022-09-23T19:34:05;7.05;;;5.20;;
2996;SDS011;1508;48.744;9.110;2022-09-23T19:37:04;6.43;;;5.77;;
2996;SDS011;1508;48.744;9.110;2022-09-23T19:39:50;6.90;;;5.45;;
2996;SDS011;1508;48.744;9.110;2022-09-23T19:42:36;7.90;;;5.70;;
2996;SDS011;1508;48.744;9.110;2022-09-23T19:45:22;7.63;;;5.40;;
2996;SDS011;1508;48.744;9.110;2022-09-23T19:48:07;13.02;;;5.75;;
2996;SDS011;1508;48.744;9.110;2022-09-23T19:50:54;6.70;;;4.80;;
2996;SDS011;1508;48.744;9.110;2022-09-23T19:53:40;9.35;;;5.82;;
2996;SDS011;1508;48.744;9.110;2022-09-23T19:56:27;6.55;;;5.03;;
2996;SDS011;1508;48.744;9.110;2022-09-23T19:59:13;6.22;;;4.97;;